createdAt,value
2019-01-30T00:00:31.406Z,97448.51
2019-01-30T00:02:58.966Z,97447.70
2019-01-30T00:05:26.406Z,97444.80
2019-01-30T00:07:53.862Z,97445.34
2019-01-30T00:10:21.306Z,97440.28
2019-01-30T00:12:48.884Z,97423.18
2019-01-30T00:15:16.324Z,97424.78
2019-01-30T00:17:43.846Z,97413.42
2019-01-30T00:20:11.263Z,97411.89
2019-01-30T00:22:38.699Z,97415.84
2019-01-30T00:25:06.243Z,97403.77
2019-01-30T00:27:33.700Z,97402.65
2019-01-30T00:30:04.011Z,97397.79
2019-01-30T00:32:29.014Z,97404.31
2019-01-30T00:34:56.755Z,97393.55
2019-01-30T00:40:15.716Z,97389.80
2019-01-30T00:42:43.176Z,97385.20
2019-01-30T00:45:11.521Z,97381.30
2019-01-30T00:47:39.568Z,97376.31
2019-01-30T00:50:06.988Z,97380.95
2019-01-30T00:52:34.439Z,97385.74
2019-01-30T00:55:01.873Z,97376.44
2019-01-30T00:57:30.281Z,97377.24
2019-01-30T00:59:57.711Z,97370.56
2019-01-30T01:02:25.134Z,97368.41
2019-01-30T01:04:52.602Z,97369.09
2019-01-30T01:07:20.019Z,97370.80
2019-01-30T01:09:47.481Z,97368.33
2019-01-30T01:12:14.919Z,97366.28
2019-01-30T01:14:42.373Z,97365.86
2019-01-30T01:17:10.381Z,97359.72
2019-01-30T01:19:37.811Z,97356.83
2019-01-30T01:22:05.260Z,97354.94
2019-01-30T01:24:32.690Z,97354.86
2019-01-30T01:27:00.146Z,97352.85
2019-01-30T01:29:27.587Z,97352.12
2019-01-30T01:31:55.016Z,97346.98
2019-01-30T01:34:22.473Z,97344.98
2019-01-30T01:36:49.907Z,97336.80
2019-01-30T01:39:17.341Z,97337.95
2019-01-30T01:41:44.798Z,97332.47
2019-01-30T01:44:12.226Z,97329.80
2019-01-30T01:46:39.672Z,97326.80
2019-01-30T01:49:07.094Z,97328.95
2019-01-30T01:51:34.542Z,97319.54
2019-01-30T01:54:02.005Z,97317.22
2019-01-30T01:56:29.445Z,97311.01
2019-01-30T01:58:56.876Z,97307.11
2019-01-30T02:01:24.297Z,97299.31
2019-01-30T02:03:51.732Z,97290.01
2019-01-30T02:06:19.173Z,97286.23
2019-01-30T02:08:47.352Z,97282.72
2019-01-30T02:11:14.818Z,97287.81
2019-01-30T02:13:42.240Z,97275.66
2019-01-30T02:16:10.282Z,97274.58
2019-01-30T02:18:37.722Z,97269.71
2019-01-30T02:21:05.172Z,97268.20
2019-01-30T02:23:32.625Z,97261.95
2019-01-30T02:26:00.043Z,97259.53
2019-01-30T02:28:27.478Z,97251.92
2019-01-30T02:30:55.946Z,97244.83
2019-01-30T02:33:23.450Z,97243.81
2019-01-30T02:35:51.226Z,97243.73
2019-01-30T02:38:18.897Z,97235.82
2019-01-30T02:40:46.328Z,97231.36
2019-01-30T02:43:13.784Z,97227.84
2019-01-30T02:45:42.262Z,97222.47
2019-01-30T02:48:09.680Z,97222.78
2019-01-30T02:50:37.122Z,97218.95
2019-01-30T02:53:04.557Z,97219.97
2019-01-30T02:55:32.021Z,97210.66
2019-01-30T02:57:59.494Z,97203.41
2019-01-30T03:00:28.454Z,97207.97
2019-01-30T03:02:55.895Z,97209.55
2019-01-30T03:05:23.331Z,97213.09
2019-01-30T03:07:50.774Z,97206.20
2019-01-30T03:10:19.151Z,97212.08
2019-01-30T03:12:46.576Z,97212.47
2019-01-30T03:15:14.950Z,97210.30
2019-01-30T03:17:42.965Z,97210.19
2019-01-30T03:20:14.251Z,97209.30
2019-01-30T03:22:41.692Z,97209.27
2019-01-30T03:25:09.131Z,97194.42
2019-01-30T03:27:37.500Z,97201.40
2019-01-30T03:30:20.833Z,97196.37
2019-01-30T03:32:48.334Z,97192.77
2019-01-30T03:35:15.742Z,97189.40
2019-01-30T03:37:43.497Z,97187.17
2019-01-30T03:40:11.765Z,97193.85
2019-01-30T03:42:39.223Z,97192.59
2019-01-30T03:45:06.642Z,97184.89
2019-01-30T03:47:34.148Z,97184.37
2019-01-30T03:50:01.588Z,97189.72
2019-01-30T03:52:29.048Z,97185.55
2019-01-30T03:54:56.464Z,97185.31
2019-01-30T03:57:23.938Z,97185.28
2019-01-30T03:59:51.369Z,97184.17
2019-01-30T04:02:18.823Z,97182.19
2019-01-30T04:04:46.290Z,97168.78
2019-01-30T04:07:13.958Z,97167.83
2019-01-30T04:09:41.429Z,97166.47
2019-01-30T04:12:08.884Z,97163.73
2019-01-30T04:14:36.368Z,97166.00
2019-01-30T04:17:03.809Z,97161.33
2019-01-30T04:19:31.251Z,97161.88
2019-01-30T04:21:58.690Z,97160.73
2019-01-30T04:24:26.163Z,97162.12
2019-01-30T04:26:53.639Z,97155.21
2019-01-30T04:29:21.063Z,97161.57
2019-01-30T04:31:48.498Z,97152.94
2019-01-30T04:34:15.953Z,97153.02
2019-01-30T04:36:43.392Z,97155.65
2019-01-30T04:39:10.858Z,97151.27
2019-01-30T04:41:38.291Z,97158.34
2019-01-30T04:44:05.768Z,97153.06
2019-01-30T04:46:33.192Z,97145.14
2019-01-30T04:49:00.656Z,97146.65
2019-01-30T04:51:28.101Z,97141.70
2019-01-30T04:53:55.530Z,97141.67
2019-01-30T04:56:22.961Z,97135.61
2019-01-30T04:58:50.371Z,97123.27
2019-01-30T05:01:17.822Z,97132.39
2019-01-30T05:03:45.236Z,97130.44
2019-01-30T05:06:12.692Z,97131.62
2019-01-30T05:08:40.130Z,97127.08
2019-01-30T05:11:07.548Z,97122.89
2019-01-30T05:13:35.008Z,97123.66
2019-01-30T05:16:02.422Z,97120.48
2019-01-30T05:18:29.894Z,97117.81
2019-01-30T05:20:57.307Z,97115.99
2019-01-30T05:23:24.860Z,97119.30
2019-01-30T05:25:52.300Z,97120.72
2019-01-30T05:28:19.760Z,97116.06
2019-01-30T05:30:47.193Z,97115.98
2019-01-30T05:33:15.463Z,97114.91
2019-01-30T05:35:42.896Z,97116.36
2019-01-30T05:38:10.337Z,97119.37
2019-01-30T05:40:38.623Z,97117.89
2019-01-30T05:43:06.169Z,97120.44
2019-01-30T05:45:33.582Z,97112.41
2019-01-30T05:48:01.020Z,97109.67
2019-01-30T05:50:28.460Z,97104.84
2019-01-30T05:52:55.920Z,97101.52
2019-01-30T05:55:23.376Z,97107.76
2019-01-30T05:57:50.839Z,97104.80
2019-01-30T06:00:20.814Z,97107.46
2019-01-30T06:02:48.259Z,97102.98
2019-01-30T06:05:16.084Z,97107.43
2019-01-30T06:07:43.526Z,97105.91
2019-01-30T06:10:10.973Z,97110.05
2019-01-30T06:12:38.449Z,97102.66
2019-01-30T06:15:07.773Z,97109.06
2019-01-30T06:17:35.200Z,97109.75
2019-01-30T06:20:02.653Z,97102.52
2019-01-30T06:22:30.072Z,97109.84
2019-01-30T06:24:57.503Z,97104.64
2019-01-30T06:27:24.931Z,97113.98
2019-01-30T06:29:52.348Z,97104.48
2019-01-30T06:32:21.810Z,97106.14
2019-01-30T06:34:47.287Z,97097.95
2019-01-30T06:37:14.727Z,97095.94
2019-01-30T06:39:42.180Z,97096.50
2019-01-30T06:42:09.608Z,97096.42
2019-01-30T06:44:37.086Z,97087.23
2019-01-30T06:47:04.514Z,97080.08
2019-01-30T06:49:31.937Z,97090.44
2019-01-30T06:51:59.389Z,97084.98
2019-01-30T06:54:26.832Z,97085.17
2019-01-30T06:56:54.291Z,97080.50
2019-01-30T06:59:21.728Z,97083.78
2019-01-30T07:01:49.150Z,97080.01
2019-01-30T07:04:17.184Z,97078.84
2019-01-30T07:06:44.635Z,97077.28
2019-01-30T07:09:12.063Z,97077.70
2019-01-30T07:11:39.549Z,97074.03
2019-01-30T07:14:06.988Z,97073.30
2019-01-30T07:16:34.451Z,97068.75
2019-01-30T07:19:02.400Z,97077.30
2019-01-30T07:21:29.867Z,97068.06
2019-01-30T07:23:57.298Z,97063.70
2019-01-30T07:26:24.731Z,97064.95
2019-01-30T07:28:52.198Z,97069.36
2019-01-30T07:31:19.627Z,97072.47
2019-01-30T07:33:48.686Z,97072.34
2019-01-30T07:36:16.135Z,97074.41
2019-01-30T07:38:43.562Z,97068.13
2019-01-30T07:41:10.995Z,97074.13
2019-01-30T07:43:38.426Z,97078.69
2019-01-30T07:46:05.853Z,97080.77
2019-01-30T07:48:33.322Z,97078.91
2019-01-30T07:51:00.751Z,97085.19
2019-01-30T07:53:28.175Z,97079.94
2019-01-30T07:55:55.609Z,97077.23
2019-01-30T07:58:23.040Z,97076.33
2019-01-30T08:00:50.526Z,97071.42
2019-01-30T08:03:18.307Z,97074.95
2019-01-30T08:05:45.769Z,97075.84
2019-01-30T08:08:13.249Z,97067.50
2019-01-30T08:10:40.681Z,97069.08
2019-01-30T08:13:08.154Z,97067.70
2019-01-30T08:15:35.615Z,97064.39
2019-01-30T08:18:03.081Z,97067.36
2019-01-30T08:20:30.519Z,97066.75
2019-01-30T08:22:58.065Z,97073.44
2019-01-30T08:25:25.701Z,97073.16
2019-01-30T08:27:52.935Z,97069.66
2019-01-30T08:30:23.648Z,97072.41
2019-01-30T08:32:51.402Z,97067.98
2019-01-30T08:35:18.925Z,97067.78
2019-01-30T08:37:46.402Z,97063.08
2019-01-30T08:40:13.858Z,97062.25
2019-01-30T08:42:41.284Z,97061.75
2019-01-30T08:45:10.043Z,97060.47
2019-01-30T08:47:37.520Z,97054.45
2019-01-30T08:50:04.982Z,97060.16
2019-01-30T08:52:32.413Z,97062.64
2019-01-30T08:54:59.844Z,97060.77
2019-01-30T08:57:27.294Z,97057.88
2019-01-30T08:59:54.716Z,97058.87
2019-01-30T09:02:22.154Z,97054.09
2019-01-30T09:04:49.583Z,97053.45
2019-01-30T09:07:17.025Z,97061.69
2019-01-30T09:09:44.475Z,97053.17
2019-01-30T09:12:11.963Z,97054.09
2019-01-30T09:14:39.399Z,97052.00
2019-01-30T09:17:08.734Z,97056.56
2019-01-30T09:19:34.302Z,97051.45
2019-01-30T09:22:01.756Z,97054.97
2019-01-30T09:24:29.218Z,97059.34
2019-01-30T09:26:56.661Z,97058.44
2019-01-30T09:29:24.109Z,97056.34
2019-01-30T09:31:51.557Z,97061.13
2019-01-30T09:34:20.043Z,97060.70
2019-01-30T09:36:48.941Z,97066.66
2019-01-30T09:39:16.464Z,97068.45
2019-01-30T09:41:43.928Z,97070.05
2019-01-30T09:44:11.381Z,97068.88
2019-01-30T09:46:38.802Z,97069.29
2019-01-30T09:49:06.226Z,97070.38
2019-01-30T09:51:33.683Z,97068.68
2019-01-30T09:54:01.096Z,97071.69
2019-01-30T09:56:28.587Z,97071.34
2019-01-30T09:58:56.000Z,97072.75
2019-01-30T10:01:23.466Z,97077.03
2019-01-30T10:03:50.934Z,97078.20
2019-01-30T10:06:18.374Z,97072.00
2019-01-30T10:08:45.852Z,97080.36
2019-01-30T10:11:13.328Z,97082.98
2019-01-30T10:13:40.780Z,97079.80
2019-01-30T10:16:08.191Z,97080.22
2019-01-30T10:18:35.649Z,97081.09
2019-01-30T10:21:03.093Z,97084.55
2019-01-30T10:23:30.602Z,97080.35
2019-01-30T10:25:58.014Z,97084.55
2019-01-30T10:28:25.459Z,97082.27
2019-01-30T10:30:52.887Z,97078.56
2019-01-30T10:33:20.854Z,97080.08
2019-01-30T10:35:48.300Z,97079.38
2019-01-30T10:38:15.749Z,97086.17
2019-01-30T10:40:43.197Z,97078.82
2019-01-30T10:43:10.696Z,97081.32
2019-01-30T10:45:38.514Z,97079.44
2019-01-30T10:48:05.641Z,97076.17
2019-01-30T10:50:33.099Z,97075.37
2019-01-30T10:53:00.533Z,97075.51
2019-01-30T10:55:29.753Z,97073.45
2019-01-30T10:57:57.179Z,97066.13
2019-01-30T11:00:25.606Z,97068.20
2019-01-30T11:02:53.090Z,97068.45
2019-01-30T11:05:20.538Z,97065.72
2019-01-30T11:07:47.994Z,97063.36
2019-01-30T11:10:15.477Z,97066.39
2019-01-30T11:12:42.901Z,97065.44
2019-01-30T11:15:10.378Z,97071.86
2019-01-30T11:17:38.903Z,97070.97
2019-01-30T11:20:06.403Z,97073.02
2019-01-30T11:22:33.836Z,97073.66
2019-01-30T11:25:01.284Z,97069.16
2019-01-30T11:27:28.758Z,97064.81
2019-01-30T11:29:56.202Z,97063.92
2019-01-30T11:32:23.649Z,97059.70
2019-01-30T11:34:51.099Z,97060.59
2019-01-30T11:37:18.549Z,97059.70
2019-01-30T11:39:45.977Z,97053.27
2019-01-30T11:42:13.415Z,97056.80
2019-01-30T11:44:40.853Z,97050.98
2019-01-30T11:47:08.347Z,97055.61
2019-01-30T11:49:35.857Z,97057.20
2019-01-30T11:52:03.323Z,97057.55
2019-01-30T11:54:38.620Z,97050.92
2019-01-30T11:56:58.303Z,97050.66
2019-01-30T11:59:25.755Z,97047.18
2019-01-30T12:01:53.523Z,97051.05
2019-01-30T12:04:20.992Z,97048.16
2019-01-30T12:06:48.433Z,97054.45
2019-01-30T12:09:15.883Z,97054.43
2019-01-30T12:11:43.349Z,97052.94
2019-01-30T12:14:10.790Z,97057.82
2019-01-30T12:16:39.231Z,97054.38
2019-01-30T12:19:06.698Z,97056.56
2019-01-30T12:21:34.158Z,97055.41
2019-01-30T12:24:01.612Z,97059.53
2019-01-30T12:26:29.071Z,97057.89
2019-01-30T12:28:56.532Z,97055.11
2019-01-30T12:31:24.163Z,97060.91
2019-01-30T12:33:51.654Z,97053.33
2019-01-30T12:36:19.133Z,97058.31
2019-01-30T12:38:47.695Z,97056.89
2019-01-30T12:41:15.227Z,97055.41
2019-01-30T12:43:45.237Z,97059.05
2019-01-30T12:46:10.148Z,97053.80
2019-01-30T12:48:37.621Z,97049.45
2019-01-30T12:51:05.922Z,97046.97
2019-01-30T12:53:34.818Z,97039.70
2019-01-30T12:56:00.942Z,97045.24
2019-01-30T12:58:28.667Z,97051.05
2019-01-30T13:00:56.228Z,97046.77
2019-01-30T13:03:23.654Z,97054.28
2019-01-30T13:05:51.096Z,97048.89
2019-01-30T13:08:18.529Z,97051.95
2019-01-30T13:10:45.999Z,97056.52
2019-01-30T13:13:13.428Z,97056.23
2019-01-30T13:15:40.951Z,97067.30
2019-01-30T13:18:17.806Z,97063.91
2019-01-30T13:20:35.796Z,97066.26
2019-01-30T13:23:03.211Z,97070.55
2019-01-30T13:25:30.637Z,97066.13
2019-01-30T13:27:58.071Z,97073.23
2019-01-30T13:30:26.999Z,97075.86
2019-01-30T13:32:56.183Z,97072.95
2019-01-30T13:35:23.639Z,97076.34
2019-01-30T13:37:51.118Z,97070.17
2019-01-30T13:40:19.472Z,97071.98
2019-01-30T13:42:46.936Z,97071.52
2019-01-30T13:45:14.395Z,97074.42
2019-01-30T13:47:41.898Z,97074.70
2019-01-30T13:50:10.128Z,97076.35
2019-01-30T13:52:37.604Z,97082.14
2019-01-30T13:55:05.168Z,97079.30
2019-01-30T13:57:32.583Z,97079.03
2019-01-30T14:00:00.055Z,97082.14
2019-01-30T14:02:27.513Z,97086.97
2019-01-30T14:04:59.507Z,97087.81
2019-01-30T14:07:22.421Z,97087.58
2019-01-30T14:09:49.881Z,97089.17
2019-01-30T14:12:17.346Z,97086.28
2019-01-30T14:14:44.793Z,97099.69
2019-01-30T14:17:12.268Z,97097.40
2019-01-30T14:19:39.774Z,97095.13
2019-01-30T14:22:07.209Z,97100.16
2019-01-30T14:24:35.192Z,97102.58
2019-01-30T14:27:02.648Z,97103.48
2019-01-30T14:29:30.106Z,97100.86
2019-01-30T14:31:57.561Z,97110.95
2019-01-30T14:34:25.055Z,97104.53
2019-01-30T14:36:52.510Z,97107.07
2019-01-30T14:39:19.985Z,97112.41
2019-01-30T14:41:47.421Z,97108.41
2019-01-30T14:44:14.888Z,97110.53
2019-01-30T14:46:42.354Z,97111.22
2019-01-30T14:49:09.810Z,97112.54
2019-01-30T14:51:37.278Z,97109.78
2019-01-30T14:54:04.758Z,97117.92
2019-01-30T14:56:32.206Z,97119.80
2019-01-30T14:58:59.876Z,97118.75
2019-01-30T15:01:27.344Z,97121.04
2019-01-30T15:03:54.836Z,97124.77
2019-01-30T15:06:22.256Z,97127.59
2019-01-30T15:08:49.723Z,97128.71
2019-01-30T15:11:17.174Z,97130.65
2019-01-30T15:13:44.633Z,97136.80
2019-01-30T15:16:12.082Z,97146.09
2019-01-30T15:18:39.570Z,97143.61
2019-01-30T15:21:06.988Z,97148.55
2019-01-30T15:23:34.429Z,97149.83
2019-01-30T15:26:01.914Z,97148.87
2019-01-30T15:28:29.353Z,97156.30
2019-01-30T15:30:57.669Z,97155.27
2019-01-30T15:33:25.087Z,97162.89
2019-01-30T15:35:52.543Z,97160.78
2019-01-30T15:38:20.849Z,97163.81
2019-01-30T15:40:47.497Z,97163.46
2019-01-30T15:43:16.204Z,97173.13
2019-01-30T15:45:43.647Z,97165.94
2019-01-30T15:48:11.126Z,97168.98
2019-01-30T15:50:39.309Z,97173.69
2019-01-30T15:53:07.583Z,97179.16
2019-01-30T15:55:35.021Z,97182.13
2019-01-30T15:58:02.584Z,97180.23
2019-01-30T16:00:33.494Z,97185.94
2019-01-30T16:03:00.961Z,97191.34
2019-01-30T16:05:29.899Z,97198.09
2019-01-30T16:07:58.418Z,97196.98
2019-01-30T16:10:25.886Z,97194.30
2019-01-30T16:12:53.393Z,97200.77
2019-01-30T16:15:30.429Z,97202.73
2019-01-30T16:17:58.525Z,97202.49
2019-01-30T16:20:25.991Z,97204.23
2019-01-30T16:22:53.478Z,97211.59
2019-01-30T16:25:20.995Z,97213.73
2019-01-30T16:27:48.460Z,97217.09
2019-01-30T16:30:16.687Z,97214.65
2019-01-30T16:32:44.096Z,97222.22
2019-01-30T16:35:11.521Z,97219.23
2019-01-30T16:37:39.054Z,97226.26
2019-01-30T16:40:06.536Z,97230.89
2019-01-30T16:42:34.003Z,97228.94
2019-01-30T16:45:02.528Z,97232.72
2019-01-30T16:47:29.271Z,97243.28
2019-01-30T16:49:56.730Z,97237.72
2019-01-30T16:52:24.188Z,97249.80
2019-01-30T16:54:51.698Z,97246.48
2019-01-30T16:57:19.211Z,97253.88
2019-01-30T16:59:46.720Z,97250.69
2019-01-30T17:02:14.257Z,97258.48
2019-01-30T17:04:41.687Z,97256.44
2019-01-30T17:07:10.262Z,97259.98
2019-01-30T17:09:37.798Z,97263.58
2019-01-30T17:12:05.274Z,97271.53
2019-01-30T17:14:32.737Z,97270.93
2019-01-30T17:17:00.159Z,97267.82
2019-01-30T17:19:27.823Z,97277.27
2019-01-30T17:21:55.327Z,97279.09
2019-01-30T17:24:22.772Z,97281.79
2019-01-30T17:26:50.271Z,97281.40
2019-01-30T17:29:17.787Z,97291.36
2019-01-30T17:31:45.357Z,97289.39
2019-01-30T17:34:12.791Z,97292.59
2019-01-30T17:36:40.264Z,97298.19
2019-01-30T17:39:07.706Z,97303.49
2019-01-30T17:41:35.183Z,97310.20
2019-01-30T17:44:02.620Z,97303.30
2019-01-30T17:46:30.429Z,97302.25
2019-01-30T17:48:57.867Z,97299.70
2019-01-30T17:51:25.309Z,97308.48
2019-01-30T17:53:52.803Z,97299.01
2019-01-30T17:56:20.251Z,97305.44
2019-01-30T17:58:47.697Z,97308.02
2019-01-30T18:01:15.126Z,97311.17
2019-01-30T18:03:42.586Z,97318.87
2019-01-30T18:06:12.660Z,97319.63
2019-01-30T18:08:37.559Z,97318.52
2019-01-30T18:11:04.998Z,97325.78
2019-01-30T18:13:32.454Z,97329.70
2019-01-30T18:15:59.876Z,97327.19
2019-01-30T18:18:27.334Z,97332.36
2019-01-30T18:20:54.783Z,97335.39
2019-01-30T18:23:22.257Z,97338.05
2019-01-30T18:25:49.702Z,97336.48
2019-01-30T18:28:17.181Z,97335.22
2019-01-30T18:30:44.655Z,97339.81
2019-01-30T18:33:12.140Z,97344.45
2019-01-30T18:35:39.575Z,97344.86
2019-01-30T18:38:07.032Z,97338.93
2019-01-30T18:40:34.478Z,97345.02
2019-01-30T18:43:01.928Z,97351.23
2019-01-30T18:45:29.418Z,97353.97
2019-01-30T18:47:56.843Z,97347.91
2019-01-30T18:50:25.927Z,97351.39
2019-01-30T18:52:53.441Z,97348.75
2019-01-30T18:55:20.901Z,97359.93
2019-01-30T18:57:48.387Z,97352.52
2019-01-30T19:00:20.229Z,97354.89
2019-01-30T19:02:47.839Z,97363.23
2019-01-30T19:05:15.403Z,97370.06
2019-01-30T19:07:43.069Z,97369.02
2019-01-30T19:10:10.507Z,97365.13
2019-01-30T19:12:37.960Z,97367.52
2019-01-30T19:15:05.392Z,97371.97
2019-01-30T19:17:32.928Z,97369.89
2019-01-30T19:20:00.531Z,97368.33
2019-01-30T19:22:28.036Z,97372.27
2019-01-30T19:24:55.746Z,97368.55
2019-01-30T19:27:23.212Z,97369.75
2019-01-30T19:29:50.650Z,97374.47
2019-01-30T19:32:18.103Z,97371.94
2019-01-30T19:34:45.691Z,97365.28
2019-01-30T19:37:13.155Z,97373.70
2019-01-30T19:39:40.635Z,97374.97
2019-01-30T19:42:08.111Z,97371.17
2019-01-30T19:44:35.803Z,97379.61
2019-01-30T19:47:03.266Z,97379.00
2019-01-30T19:49:30.852Z,97377.70
2019-01-30T19:51:58.373Z,97375.90
2019-01-30T19:54:25.921Z,97380.42
2019-01-30T19:56:53.380Z,97381.76
2019-01-30T19:59:20.878Z,97381.98
2019-01-30T20:01:48.392Z,97377.23
2019-01-30T20:04:15.861Z,97382.09
2019-01-30T20:06:43.373Z,97378.83
2019-01-30T20:09:10.997Z,97386.33
2019-01-30T20:11:38.524Z,97387.56
2019-01-30T20:14:06.048Z,97390.23
2019-01-30T20:16:33.669Z,97388.09
2019-01-30T20:19:01.208Z,97395.00
2019-01-30T20:24:20.916Z,97401.00
2019-01-30T20:26:48.517Z,97400.05
2019-01-30T20:29:15.967Z,97405.11
2019-01-30T20:34:45.633Z,97404.09
2019-01-30T20:37:13.103Z,97404.87
2019-01-30T20:39:40.588Z,97403.32
2019-01-30T20:42:08.068Z,97403.56
2019-01-30T20:44:35.737Z,97408.20
2019-01-30T20:47:03.309Z,97403.39
2019-01-30T20:49:30.896Z,97404.17
2019-01-30T20:51:58.407Z,97406.05
2019-01-30T20:54:25.882Z,97412.80
2019-01-30T20:56:54.492Z,97411.00
2019-01-30T20:59:21.977Z,97406.36
2019-01-30T21:01:49.445Z,97413.62
2019-01-30T21:04:16.974Z,97415.41
2019-01-30T21:06:44.475Z,97410.61
2019-01-30T21:09:12.235Z,97408.91
2019-01-30T21:11:39.998Z,97415.99
2019-01-30T21:14:07.579Z,97417.97
2019-01-30T21:16:35.436Z,97417.08
2019-01-30T21:19:02.924Z,97420.52
2019-01-30T21:21:30.605Z,97417.65
2019-01-30T21:23:58.277Z,97419.49
2019-01-30T21:26:25.952Z,97422.55
2019-01-30T21:28:53.441Z,97422.19
2019-01-30T21:31:20.928Z,97429.83
2019-01-30T21:33:49.246Z,97436.62
2019-01-30T21:36:17.307Z,97432.20
2019-01-30T21:38:44.978Z,97436.94
2019-01-30T21:41:12.473Z,97433.22
2019-01-30T21:43:40.012Z,97437.61
2019-01-30T21:46:07.524Z,97443.91
2019-01-30T21:48:35.213Z,97445.97
2019-01-30T21:51:02.690Z,97444.27
2019-01-30T21:53:30.195Z,97445.19
2019-01-30T21:55:58.614Z,97448.66
2019-01-30T21:58:26.192Z,97444.97
2019-01-30T22:00:53.717Z,97450.87
2019-01-30T22:03:21.534Z,97460.02
2019-01-30T22:05:49.142Z,97459.38
2019-01-30T22:08:17.271Z,97464.22
2019-01-30T22:10:44.701Z,97455.75
2019-01-30T22:13:12.180Z,97460.17
2019-01-30T22:15:39.710Z,97460.22
2019-01-30T22:18:07.474Z,97460.82
2019-01-30T22:20:34.968Z,97458.59
2019-01-30T22:23:02.431Z,97465.54
2019-01-30T22:25:29.943Z,97468.22
2019-01-30T22:27:57.434Z,97459.78
2019-01-30T22:30:24.897Z,97463.28
2019-01-30T22:32:52.379Z,97457.92
2019-01-30T22:35:19.838Z,97459.13
2019-01-30T22:37:47.299Z,97462.27
2019-01-30T22:40:14.808Z,97462.57
2019-01-30T22:42:42.254Z,97465.83
2019-01-30T22:45:12.474Z,97462.69
2019-01-30T22:47:39.939Z,97468.11
2019-01-30T22:50:07.375Z,97470.69
2019-01-30T22:52:34.797Z,97464.72
2019-01-30T22:55:02.286Z,97469.52
2019-01-30T22:57:29.735Z,97460.80
2019-01-30T22:59:57.279Z,97470.55
2019-01-30T23:02:24.720Z,97468.13
2019-01-30T23:04:54.731Z,97464.84
2019-01-30T23:07:23.189Z,97466.52
2019-01-30T23:10:10.105Z,97467.54
2019-01-30T23:13:07.443Z,97463.01
2019-01-30T23:15:36.654Z,97470.08
2019-01-30T23:18:27.527Z,97472.83
2019-01-30T23:20:55.992Z,97480.78
2019-01-30T23:23:34.753Z,97475.62
2019-01-30T23:26:15.711Z,97489.59
2019-01-30T23:28:55.656Z,97481.86
2019-01-30T23:31:42.455Z,97488.91
2019-01-30T23:34:16.496Z,97473.16
2019-01-30T23:37:05.650Z,97477.22
2019-01-30T23:43:01.709Z,97473.94
2019-01-30T23:45:47.721Z,97470.31
2019-01-30T23:48:34.481Z,97478.38
2019-01-30T23:51:28.248Z,97480.54
2019-01-30T23:53:57.521Z,97484.80
2019-01-30T23:56:31.357Z,97480.58
2019-01-30T23:58:58.854Z,97485.44
